createdAt,value
2018-08-18T00:00:25.707Z,85.99
2018-08-18T00:02:54.769Z,86.90
2018-08-18T00:05:23.875Z,86.89
2018-08-18T00:07:52.951Z,86.15
2018-08-18T00:10:23.325Z,87.30
2018-08-18T00:12:52.843Z,86.91
2018-08-18T00:15:21.927Z,86.21
2018-08-18T00:17:51.497Z,86.37
2018-08-18T00:20:23.936Z,87.33
2018-08-18T00:22:53.009Z,87.50
2018-08-18T00:25:22.163Z,87.34
2018-08-18T00:27:51.308Z,88.86
2018-08-18T00:30:25.501Z,87.93
2018-08-18T00:32:55.170Z,87.55
2018-08-18T00:35:24.589Z,88.60
2018-08-18T00:37:53.543Z,89.95
2018-08-18T00:40:22.659Z,89.64
2018-08-18T00:42:51.679Z,89.08
2018-08-18T00:45:20.698Z,88.67
2018-08-18T00:47:50.120Z,89.33
2018-08-18T00:50:34.321Z,89.19
2018-08-18T00:53:03.967Z,88.83
2018-08-18T00:55:33.020Z,89.21
2018-08-18T00:58:02.049Z,88.19
2018-08-18T01:00:31.050Z,89.46
2018-08-18T01:03:00.881Z,88.50
2018-08-18T01:05:30.357Z,89.19
2018-08-18T01:07:59.680Z,89.44
2018-08-18T01:10:29.100Z,89.54
2018-08-18T01:12:58.416Z,89.44
2018-08-18T01:15:28.359Z,89.77
2018-08-18T01:17:58.085Z,89.95
2018-08-18T01:20:27.575Z,89.35
2018-08-18T01:23:01.431Z,89.54
2018-08-18T01:25:30.989Z,89.68
2018-08-18T01:28:01.137Z,89.83
2018-08-18T01:30:30.518Z,90.33
2018-08-18T01:32:59.818Z,90.84
2018-08-18T01:35:29.019Z,90.75
2018-08-18T01:37:58.461Z,90.84
2018-08-18T01:40:27.752Z,91.57
2018-08-18T01:42:57.316Z,90.25
2018-08-18T01:45:26.474Z,90.30
2018-08-18T01:47:56.794Z,89.49
2018-08-18T01:50:26.104Z,90.80
2018-08-18T01:52:55.438Z,90.01
2018-08-18T01:55:26.260Z,90.23
2018-08-18T01:57:55.656Z,89.87
2018-08-18T02:00:28.700Z,90.35
2018-08-18T02:02:58.090Z,91.06
2018-08-18T02:05:28.257Z,91.78
2018-08-18T02:07:57.589Z,91.67
2018-08-18T02:10:26.913Z,91.09
2018-08-18T02:13:03.129Z,90.72
2018-08-18T02:15:33.092Z,89.62
2018-08-18T02:18:02.282Z,90.24
2018-08-18T02:20:31.578Z,90.05
2018-08-18T02:23:00.853Z,91.14
2018-08-18T02:25:30.153Z,90.60
2018-08-18T02:27:59.388Z,91.29
2018-08-18T02:30:28.791Z,91.83
2018-08-18T02:32:57.985Z,91.61
2018-08-18T02:35:27.407Z,92.22
2018-08-18T02:37:56.803Z,91.28
2018-08-18T02:40:26.328Z,90.46
2018-08-18T02:42:55.710Z,91.76
2018-08-18T02:45:25.235Z,91.29
2018-08-18T02:48:09.166Z,91.20
2018-08-18T02:50:40.573Z,91.54
2018-08-18T02:53:21.323Z,92.33
2018-08-18T02:55:50.663Z,92.05
2018-08-18T02:58:21.228Z,91.73
2018-08-18T03:00:50.965Z,92.40
2018-08-18T03:03:20.495Z,91.94
2018-08-18T03:05:50.061Z,92.20
2018-08-18T03:08:19.627Z,91.07
2018-08-18T03:10:48.752Z,92.07
2018-08-18T03:13:17.913Z,92.96
2018-08-18T03:15:53.652Z,92.70
2018-08-18T03:18:33.490Z,92.44
2018-08-18T03:21:03.072Z,92.80
2018-08-18T03:23:33.338Z,93.07
2018-08-18T03:26:02.767Z,93.24
2018-08-18T03:28:37.603Z,93.21
2018-08-18T03:31:07.339Z,92.76
2018-08-18T03:33:36.840Z,92.88
2018-08-18T03:36:20.732Z,93.34
2018-08-18T03:38:50.134Z,93.47
2018-08-18T03:41:19.153Z,93.76
2018-08-18T03:43:48.674Z,93.77
2018-08-18T03:46:17.947Z,92.83
2018-08-18T03:48:47.640Z,93.09
2018-08-18T03:51:16.913Z,92.49
2018-08-18T03:53:46.579Z,92.56
2018-08-18T03:56:15.785Z,93.31
2018-08-18T03:58:52.638Z,92.98
2018-08-18T04:01:56.759Z,92.68
2018-08-18T04:04:28.103Z,93.54
2018-08-18T04:06:58.502Z,92.85
2018-08-18T04:09:29.729Z,92.05
2018-08-18T04:11:59.860Z,92.26
2018-08-18T04:14:49.583Z,93.34
2018-08-18T04:17:29.813Z,92.54
2018-08-18T04:19:58.815Z,93.32
2018-08-18T04:22:28.302Z,93.72
2018-08-18T04:24:57.824Z,93.28
2018-08-18T04:27:38.235Z,93.78
2018-08-18T04:30:12.139Z,94.25
2018-08-18T04:33:04.508Z,93.74
2018-08-18T04:35:34.250Z,92.89
2018-08-18T04:38:04.201Z,93.28
2018-08-18T04:40:35.991Z,93.85
2018-08-18T04:43:05.459Z,93.78
2018-08-18T04:45:35.125Z,93.54
2018-08-18T04:48:04.503Z,94.01
2018-08-18T04:50:34.058Z,94.10
2018-08-18T04:53:03.539Z,93.92
2018-08-18T04:55:32.955Z,93.44
2018-08-18T04:58:02.325Z,93.55
2018-08-18T05:00:31.695Z,94.31
2018-08-18T05:03:01.305Z,94.36
2018-08-18T05:05:31.746Z,95.63
2018-08-18T05:08:03.347Z,94.07
2018-08-18T05:10:32.958Z,93.94
2018-08-18T05:13:02.356Z,92.74
2018-08-18T05:15:31.777Z,92.98
2018-08-18T05:18:01.256Z,90.73
2018-08-18T05:20:30.728Z,89.47
2018-08-18T05:23:20.785Z,88.23
2018-08-18T05:25:51.912Z,87.58
2018-08-18T05:28:21.474Z,86.63
2018-08-18T05:30:52.952Z,86.50
2018-08-18T05:33:21.965Z,86.74
2018-08-18T05:35:51.191Z,84.73
2018-08-18T05:38:20.447Z,84.18
2018-08-18T05:40:49.555Z,84.10
2018-08-18T05:43:19.067Z,81.98
2018-08-18T05:45:48.378Z,81.98
2018-08-18T05:48:17.680Z,82.62
2018-08-18T05:50:47.129Z,82.11
2018-08-18T05:53:19.143Z,80.54
2018-08-18T05:55:48.901Z,82.02
2018-08-18T05:58:17.943Z,81.22
2018-08-18T06:00:47.263Z,79.88
2018-08-18T06:03:19.384Z,79.11
2018-08-18T06:05:49.687Z,78.52
2018-08-18T06:08:19.519Z,78.21
2018-08-18T06:10:48.680Z,77.86
2018-08-18T06:13:21.244Z,76.38
2018-08-18T06:16:06.055Z,76.37
2018-08-18T06:18:39.385Z,75.67
2018-08-18T06:21:09.159Z,73.51
2018-08-18T06:23:39.388Z,73.59
2018-08-18T06:26:09.244Z,74.60
2018-08-18T06:28:38.741Z,72.10
2018-08-18T06:31:08.197Z,72.82
2018-08-18T06:33:37.528Z,74.39
2018-08-18T06:36:07.036Z,72.44
2018-08-18T06:38:36.732Z,72.16
2018-08-18T06:41:06.366Z,71.23
2018-08-18T06:43:35.919Z,72.45
2018-08-18T06:46:05.335Z,73.33
2018-08-18T06:48:36.136Z,74.51
2018-08-18T06:51:05.544Z,75.06
2018-08-18T06:53:40.046Z,75.21
2018-08-18T06:56:09.757Z,74.65
2018-08-18T06:58:39.127Z,72.70
2018-08-18T07:01:10.060Z,71.00
2018-08-18T07:03:43.463Z,71.12
2018-08-18T07:06:15.129Z,71.44
2018-08-18T07:08:50.576Z,72.93
2018-08-18T07:11:21.985Z,71.78
2018-08-18T07:13:51.312Z,70.35
2018-08-18T07:16:21.589Z,70.31
2018-08-18T07:18:51.496Z,67.32
2018-08-18T07:21:21.184Z,69.50
2018-08-18T07:23:50.932Z,69.03
2018-08-18T07:26:20.278Z,66.61
2018-08-18T07:28:52.521Z,65.67
2018-08-18T07:31:21.861Z,65.28
2018-08-18T07:33:51.601Z,64.50
2018-08-18T07:36:20.929Z,65.79
2018-08-18T07:38:50.290Z,62.83
2018-08-18T07:41:20.344Z,62.09
2018-08-18T07:43:50.827Z,64.02
2018-08-18T07:46:22.440Z,64.77
2018-08-18T07:48:51.600Z,63.05
2018-08-18T07:51:20.724Z,64.38
2018-08-18T07:53:49.836Z,64.46
2018-08-18T07:56:19.780Z,63.00
2018-08-18T07:58:48.817Z,61.20
2018-08-18T08:01:18.479Z,59.90
2018-08-18T08:03:48.851Z,59.23
2018-08-18T08:06:19.138Z,56.96
2018-08-18T08:08:53.326Z,59.07
2018-08-18T08:11:24.189Z,60.11
2018-08-18T08:13:53.660Z,60.54
2018-08-18T08:16:23.047Z,60.77
2018-08-18T08:18:52.592Z,60.84
2018-08-18T08:21:23.098Z,60.75
2018-08-18T08:23:53.464Z,59.48
2018-08-18T08:26:22.901Z,58.26
2018-08-18T08:28:52.265Z,57.81
2018-08-18T08:31:21.593Z,58.68
2018-08-18T08:33:50.854Z,59.34
2018-08-18T08:36:21.876Z,60.95
2018-08-18T08:38:58.808Z,57.33
2018-08-18T08:41:29.744Z,53.92
2018-08-18T08:44:00.154Z,54.38
2018-08-18T08:46:30.549Z,55.72
2018-08-18T08:49:02.025Z,54.84
2018-08-18T08:51:31.347Z,54.14
2018-08-18T08:54:01.285Z,53.79
2018-08-18T08:56:39.241Z,53.07
2018-08-18T08:59:09.260Z,51.50
2018-08-18T09:01:38.739Z,52.51
2018-08-18T09:04:08.237Z,52.81
2018-08-18T09:06:41.656Z,52.76
2018-08-18T09:09:11.011Z,53.73
2018-08-18T09:11:40.526Z,51.06
2018-08-18T09:14:10.153Z,51.08
2018-08-18T09:16:39.611Z,51.51
2018-08-18T09:19:09.344Z,52.85
2018-08-18T09:21:43.800Z,49.95
2018-08-18T09:24:13.380Z,49.79
2018-08-18T09:26:48.046Z,49.65
2018-08-18T09:29:17.597Z,50.31
2018-08-18T09:31:47.351Z,46.96
2018-08-18T09:34:16.810Z,45.00
2018-08-18T09:36:46.921Z,47.25
2018-08-18T09:39:35.946Z,47.98
2018-08-18T09:42:12.614Z,47.52
2018-08-18T09:44:43.167Z,44.64
2018-08-18T09:47:12.865Z,42.43
2018-08-18T09:49:42.941Z,42.52
2018-08-18T09:52:14.334Z,40.18
2018-08-18T09:54:44.970Z,44.13
2018-08-18T09:57:15.297Z,44.92
2018-08-18T09:59:44.926Z,46.15
2018-08-18T10:02:15.045Z,43.70
2018-08-18T10:04:44.481Z,42.91
2018-08-18T10:07:13.879Z,43.24
2018-08-18T10:09:43.196Z,43.18
2018-08-18T10:12:12.450Z,44.44
2018-08-18T10:14:41.784Z,44.01
2018-08-18T10:17:10.816Z,45.08
2018-08-18T10:19:39.901Z,40.44
2018-08-18T10:22:09.024Z,41.74
2018-08-18T10:24:38.268Z,43.66
2018-08-18T10:27:07.563Z,41.48
2018-08-18T10:29:36.667Z,40.85
2018-08-18T10:32:05.794Z,40.56
2018-08-18T10:34:34.888Z,39.09
2018-08-18T10:37:06.999Z,39.95
2018-08-18T10:39:37.515Z,39.75
2018-08-18T10:42:27.783Z,38.44
2018-08-18T10:45:00.801Z,40.35
2018-08-18T10:47:29.930Z,39.51
2018-08-18T10:50:09.946Z,38.83
2018-08-18T10:52:49.965Z,35.86
2018-08-18T10:55:19.840Z,36.91
2018-08-18T10:57:59.769Z,36.35
2018-08-18T11:00:30.490Z,37.75
2018-08-18T11:03:01.244Z,35.92
2018-08-18T11:05:31.110Z,37.37
2018-08-18T11:08:04.693Z,37.00
2018-08-18T11:10:35.349Z,35.93
2018-08-18T11:13:04.701Z,35.51
2018-08-18T11:15:33.791Z,35.98
2018-08-18T11:18:03.023Z,34.79
2018-08-18T11:20:33.562Z,37.31
2018-08-18T11:23:08.770Z,36.02
2018-08-18T11:25:40.254Z,33.84
2018-08-18T11:28:10.315Z,36.36
2018-08-18T11:30:39.502Z,35.10
2018-08-18T11:33:08.618Z,35.61
2018-08-18T11:35:38.106Z,35.40
2018-08-18T11:38:10.673Z,34.89
2018-08-18T11:40:39.915Z,34.20
2018-08-18T11:43:10.842Z,35.11
2018-08-18T11:45:41.102Z,34.16
2018-08-18T11:48:14.377Z,33.75
2018-08-18T11:50:44.037Z,34.65
2018-08-18T11:53:13.266Z,33.80
2018-08-18T11:55:42.623Z,31.58
2018-08-18T11:58:26.580Z,34.03
2018-08-18T12:01:01.107Z,34.42
2018-08-18T12:03:32.159Z,32.58
2018-08-18T12:06:03.512Z,34.25
2018-08-18T12:08:34.105Z,35.09
2018-08-18T12:11:05.002Z,34.40
2018-08-18T12:13:38.978Z,33.41
2018-08-18T12:16:12.446Z,32.97
2018-08-18T12:18:43.018Z,34.31
2018-08-18T12:21:12.589Z,34.79
2018-08-18T12:23:43.955Z,33.62
2018-08-18T12:26:18.926Z,33.86
2018-08-18T12:28:52.707Z,33.97
2018-08-18T12:31:26.155Z,34.69
2018-08-18T12:33:55.556Z,35.50
2018-08-18T12:36:25.278Z,35.26
2018-08-18T12:38:55.875Z,35.35
2018-08-18T12:41:25.266Z,34.22
2018-08-18T12:43:58.826Z,36.29
2018-08-18T12:46:37.153Z,36.10
2018-08-18T12:49:09.114Z,35.10
2018-08-18T12:51:38.476Z,37.56
2018-08-18T12:54:07.921Z,35.75
2018-08-18T12:56:37.411Z,37.66
2018-08-18T12:59:07.542Z,36.54
2018-08-18T13:01:42.815Z,36.57
2018-08-18T13:04:14.619Z,36.64
2018-08-18T13:06:51.962Z,35.28
2018-08-18T13:09:23.095Z,36.49
2018-08-18T13:11:53.672Z,34.89
2018-08-18T13:14:25.331Z,34.81
2018-08-18T13:16:54.609Z,34.93
2018-08-18T13:19:25.886Z,35.48
2018-08-18T13:21:55.244Z,36.11
2018-08-18T13:24:25.431Z,34.86
2018-08-18T13:26:54.766Z,36.06
2018-08-18T13:29:23.965Z,36.48
2018-08-18T13:31:53.650Z,34.99
2018-08-18T13:34:23.187Z,35.37
2018-08-18T13:36:52.594Z,35.27
2018-08-18T13:39:22.097Z,36.84
2018-08-18T13:41:51.521Z,34.53
2018-08-18T13:44:27.013Z,36.51
2018-08-18T13:46:56.586Z,33.69
2018-08-18T13:49:26.869Z,34.27
2018-08-18T13:51:56.493Z,34.63
2018-08-18T13:54:25.835Z,35.65
2018-08-18T13:56:55.388Z,33.50
2018-08-18T13:59:55.516Z,34.20
2018-08-18T14:02:26.343Z,34.92
2018-08-18T14:04:55.817Z,34.41
2018-08-18T14:07:25.456Z,34.33
2018-08-18T14:10:02.239Z,35.14
2018-08-18T14:12:32.718Z,35.16
2018-08-18T14:15:02.308Z,35.17
2018-08-18T14:17:31.563Z,33.99
2018-08-18T14:20:00.822Z,34.24
2018-08-18T14:22:30.153Z,36.02
2018-08-18T14:24:59.484Z,35.74
2018-08-18T14:27:28.989Z,36.77
2018-08-18T14:29:58.286Z,37.12
2018-08-18T14:32:28.790Z,37.27
2018-08-18T14:35:07.240Z,39.43
2018-08-18T14:37:38.132Z,38.93
2018-08-18T14:40:12.379Z,39.25
2018-08-18T14:42:41.829Z,36.28
2018-08-18T14:45:14.850Z,38.56
2018-08-18T14:47:44.406Z,38.03
2018-08-18T14:50:23.289Z,38.94
2018-08-18T14:52:52.962Z,40.57
2018-08-18T14:55:22.534Z,41.59
2018-08-18T14:57:56.916Z,40.85
2018-08-18T15:00:26.250Z,40.30
2018-08-18T15:02:55.820Z,40.93
2018-08-18T15:05:25.107Z,41.90
2018-08-18T15:07:56.419Z,42.41
2018-08-18T15:10:37.307Z,42.78
2018-08-18T15:13:07.233Z,41.77
2018-08-18T15:15:36.937Z,41.09
2018-08-18T15:18:08.348Z,42.80
2018-08-18T15:20:38.797Z,42.10
2018-08-18T15:23:09.294Z,41.04
2018-08-18T15:25:39.919Z,40.35
2018-08-18T15:28:11.173Z,40.56
2018-08-18T15:30:42.348Z,40.70
2018-08-18T15:33:12.521Z,39.29
2018-08-18T15:35:42.783Z,41.05
2018-08-18T15:38:12.538Z,41.03
2018-08-18T15:40:43.015Z,39.76
2018-08-18T15:43:12.410Z,41.52
2018-08-18T15:45:59.588Z,41.32
2018-08-18T15:48:28.870Z,41.16
2018-08-18T15:50:58.132Z,40.08
2018-08-18T15:53:53.046Z,40.52
2018-08-18T15:56:23.128Z,41.02
2018-08-18T15:58:53.677Z,41.91
2018-08-18T16:01:24.394Z,41.22
2018-08-18T16:03:55.071Z,42.30
2018-08-18T16:06:24.475Z,42.37
2018-08-18T16:08:54.280Z,42.17
2018-08-18T16:11:23.769Z,41.24
2018-08-18T16:13:53.171Z,42.56
2018-08-18T16:16:22.580Z,41.19
2018-08-18T16:19:00.710Z,42.47
2018-08-18T16:21:32.610Z,42.09
2018-08-18T16:24:02.124Z,41.48
2018-08-18T16:26:31.172Z,41.18
2018-08-18T16:29:00.456Z,41.51
2018-08-18T16:31:29.566Z,42.19
2018-08-18T16:33:58.589Z,41.79
2018-08-18T16:36:32.226Z,41.43
2018-08-18T16:39:01.621Z,42.49
2018-08-18T16:41:30.957Z,43.18
2018-08-18T16:43:59.956Z,43.30
2018-08-18T16:46:30.453Z,44.24
2018-08-18T16:48:59.626Z,46.11
2018-08-18T16:51:30.059Z,46.79
2018-08-18T16:54:13.540Z,48.19
2018-08-18T16:56:42.629Z,49.14
2018-08-18T16:59:11.732Z,50.67
2018-08-18T17:01:40.973Z,50.51
2018-08-18T17:04:12.239Z,51.19
2018-08-18T17:06:41.274Z,52.31
2018-08-18T17:09:10.434Z,53.17
2018-08-18T17:11:39.464Z,52.56
2018-08-18T17:14:12.737Z,53.46
2018-08-18T17:16:41.921Z,54.69
2018-08-18T17:19:11.004Z,53.76
2018-08-18T17:21:40.173Z,53.49
2018-08-18T17:24:09.276Z,55.80
2018-08-18T17:26:38.414Z,54.69
2018-08-18T17:29:07.443Z,56.45
2018-08-18T17:31:36.519Z,55.91
2018-08-18T17:34:05.650Z,58.04
2018-08-18T17:36:34.774Z,57.28
2018-08-18T17:39:04.052Z,57.23
2018-08-18T17:41:33.127Z,58.29
2018-08-18T17:44:02.197Z,58.08
2018-08-18T17:46:32.068Z,58.43
2018-08-18T17:49:01.385Z,57.42
2018-08-18T17:51:30.755Z,59.05
2018-08-18T17:54:00.146Z,59.39
2018-08-18T17:56:31.078Z,60.10
2018-08-18T17:59:00.491Z,61.65
2018-08-18T18:01:29.906Z,62.55
2018-08-18T18:03:59.697Z,61.88
2018-08-18T18:06:29.042Z,60.19
2018-08-18T18:08:58.434Z,61.49
2018-08-18T18:11:27.937Z,61.15
2018-08-18T18:13:57.049Z,60.77
2018-08-18T18:16:28.255Z,60.89
2018-08-18T18:18:59.078Z,61.82
2018-08-18T18:21:30.688Z,61.35
2018-08-18T18:23:59.995Z,60.88
2018-08-18T18:26:29.306Z,62.27
2018-08-18T18:28:58.431Z,63.20
2018-08-18T18:31:28.300Z,63.87
2018-08-18T18:34:04.940Z,63.34
2018-08-18T18:36:34.892Z,63.33
2018-08-18T18:39:04.981Z,63.61
2018-08-18T18:41:34.386Z,63.78
2018-08-18T18:44:04.366Z,65.32
2018-08-18T18:46:33.852Z,65.56
2018-08-18T18:49:08.932Z,65.80
2018-08-18T18:51:38.433Z,65.38
2018-08-18T18:54:07.972Z,66.21
2018-08-18T18:56:38.322Z,66.06
2018-08-18T18:59:07.750Z,67.70
2018-08-18T19:01:37.507Z,69.96
2018-08-18T19:04:08.009Z,69.21
2018-08-18T19:06:49.602Z,67.93
2018-08-18T19:09:19.404Z,67.95
2018-08-18T19:11:48.633Z,69.63
2018-08-18T19:14:17.817Z,69.80
2018-08-18T19:16:47.094Z,69.76
2018-08-18T19:19:16.225Z,69.87
2018-08-18T19:21:45.300Z,69.56
2018-08-18T19:24:26.991Z,70.55
2018-08-18T19:26:59.783Z,70.24
2018-08-18T19:29:29.847Z,70.65
2018-08-18T19:32:00.530Z,71.50
2018-08-18T19:34:30.477Z,70.96
2018-08-18T19:37:05.892Z,73.23
2018-08-18T19:39:36.163Z,71.86
2018-08-18T19:42:16.755Z,71.52
2018-08-18T19:44:48.229Z,71.79
2018-08-18T19:47:24.544Z,72.02
2018-08-18T19:49:54.129Z,71.31
2018-08-18T19:52:24.790Z,71.18
2018-08-18T19:54:53.874Z,71.17
2018-08-18T19:57:28.558Z,70.86
2018-08-18T20:00:05.447Z,70.94
2018-08-18T20:02:51.312Z,71.97
2018-08-18T20:05:22.446Z,72.68
2018-08-18T20:07:51.999Z,74.26
2018-08-18T20:10:21.196Z,74.22
2018-08-18T20:12:50.277Z,74.49
2018-08-18T20:15:19.414Z,75.29
2018-08-18T20:17:48.596Z,73.99
2018-08-18T20:20:22.440Z,74.49
2018-08-18T20:22:51.615Z,73.87
2018-08-18T20:25:21.843Z,72.88
2018-08-18T20:27:50.856Z,73.74
2018-08-18T20:30:20.109Z,75.93
2018-08-18T20:32:49.166Z,76.11
2018-08-18T20:35:18.316Z,77.05
2018-08-18T20:37:47.758Z,75.64
2018-08-18T20:40:17.071Z,75.45
2018-08-18T20:42:46.657Z,74.41
2018-08-18T20:45:16.237Z,75.82
2018-08-18T20:47:45.724Z,76.32
2018-08-18T20:50:15.281Z,77.33
2018-08-18T20:52:44.683Z,76.61
2018-08-18T20:55:14.130Z,76.87
2018-08-18T20:57:43.464Z,76.74
2018-08-18T21:00:13.464Z,77.84
2018-08-18T21:02:42.738Z,77.75
2018-08-18T21:05:12.973Z,78.22
2018-08-18T21:07:42.279Z,78.11
2018-08-18T21:10:12.783Z,78.69
2018-08-18T21:12:45.649Z,80.11
2018-08-18T21:15:15.672Z,79.21
2018-08-18T21:17:45.939Z,79.42
2018-08-18T21:20:17.943Z,78.38
2018-08-18T21:22:47.409Z,79.33
2018-08-18T21:25:16.898Z,79.34
2018-08-18T21:27:46.427Z,79.33
2018-08-18T21:30:18.098Z,79.29
2018-08-18T21:32:47.426Z,80.30
2018-08-18T21:35:17.776Z,79.34
2018-08-18T21:37:48.907Z,78.29
2018-08-18T21:40:18.251Z,79.20
2018-08-18T21:42:47.619Z,80.38
2018-08-18T21:45:17.008Z,79.19
2018-08-18T21:47:46.481Z,79.29
2018-08-18T21:50:15.849Z,79.25
2018-08-18T21:52:45.371Z,80.01
2018-08-18T21:55:14.903Z,80.73
2018-08-18T21:57:56.643Z,79.63
2018-08-18T22:00:31.400Z,80.31
2018-08-18T22:03:01.978Z,79.33
2018-08-18T22:05:33.149Z,81.20
2018-08-18T22:08:02.533Z,81.47
2018-08-18T22:10:32.038Z,81.61
2018-08-18T22:13:01.374Z,81.44
2018-08-18T22:15:32.837Z,80.45
2018-08-18T22:18:02.222Z,81.50
2018-08-18T22:20:31.576Z,82.05
2018-08-18T22:23:01.081Z,82.22
2018-08-18T22:25:30.420Z,81.97
2018-08-18T22:27:59.864Z,82.36
2018-08-18T22:30:29.199Z,81.84
2018-08-18T22:32:58.854Z,82.69
2018-08-18T22:35:28.132Z,82.12
2018-08-18T22:37:57.162Z,82.16
2018-08-18T22:40:26.328Z,83.09
2018-08-18T22:42:55.451Z,83.99
2018-08-18T22:45:28.135Z,84.55
2018-08-18T22:47:57.379Z,84.62
2018-08-18T22:50:26.468Z,84.52
2018-08-18T22:52:56.222Z,83.58
2018-08-18T22:55:25.361Z,83.24
2018-08-18T22:57:59.351Z,84.36
2018-08-18T23:00:28.432Z,85.24
2018-08-18T23:02:57.904Z,86.72
2018-08-18T23:05:27.625Z,84.36
2018-08-18T23:07:57.864Z,85.21
2018-08-18T23:10:32.134Z,84.52
2018-08-18T23:13:02.615Z,84.51
2018-08-18T23:15:32.042Z,85.09
2018-08-18T23:18:01.155Z,84.50
2018-08-18T23:20:30.311Z,83.63
2018-08-18T23:23:02.158Z,85.13
2018-08-18T23:25:32.554Z,84.96
2018-08-18T23:28:02.310Z,85.30
2018-08-18T23:30:39.512Z,85.00
2018-08-18T23:33:10.326Z,85.01
2018-08-18T23:35:39.728Z,86.80
2018-08-18T23:38:09.253Z,86.76
2018-08-18T23:40:38.756Z,85.14
2018-08-18T23:43:08.039Z,85.72
2018-08-18T23:45:42.690Z,84.54
2018-08-18T23:48:14.049Z,86.02
2018-08-18T23:50:44.596Z,86.34
2018-08-18T23:53:16.678Z,86.26
2018-08-18T23:56:00.601Z,86.10
2018-08-18T23:58:30.654Z,84.64
